createdAt,value
2023-02-12T07:32:53.747Z,96.24
2023-02-12T07:33:53.695Z,96.03
2023-02-12T07:34:53.690Z,96.24
2023-02-12T07:35:54.081Z,96.03
2023-02-12T07:36:53.650Z,96.14
2023-02-12T07:37:53.649Z,95.93
2023-02-12T07:38:53.653Z,95.62
2023-02-12T07:39:53.612Z,95.93
2023-02-12T07:40:53.667Z,95.83
2023-02-12T07:41:53.595Z,96.14
2023-02-12T07:42:53.637Z,96.14
2023-02-12T07:43:53.574Z,95.87
2023-02-12T07:44:53.574Z,96.03
2023-02-12T07:45:53.932Z,96.08
2023-02-12T07:46:53.555Z,96.14
2023-02-12T07:47:53.536Z,95.93
2023-02-12T07:48:53.611Z,95.93
2023-02-12T07:49:53.522Z,95.83
2023-02-12T07:50:53.494Z,95.93
2023-02-12T07:51:53.500Z,96.14
2023-02-12T07:52:53.487Z,96.34
2023-02-12T07:53:53.463Z,95.83
2023-02-12T07:54:53.465Z,96.14
2023-02-12T07:55:53.860Z,96.03
2023-02-12T07:56:53.458Z,96.14
2023-02-12T07:57:53.409Z,95.93
2023-02-12T07:58:53.450Z,96.24
2023-02-12T07:59:53.389Z,96.34
2023-02-12T08:00:53.387Z,96.14
2023-02-12T08:01:53.396Z,96.45
2023-02-12T08:02:53.407Z,95.99
2023-02-12T08:03:53.406Z,96.45
2023-02-12T08:04:55.982Z,95.93
2023-02-12T08:05:53.748Z,96.30
2023-02-12T08:06:53.322Z,95.78
2023-02-12T08:07:53.312Z,95.99
2023-02-12T08:08:53.338Z,95.99
2023-02-12T08:09:53.275Z,95.78
2023-02-12T08:10:53.267Z,95.68
2023-02-12T08:11:53.258Z,95.37
2023-02-12T08:12:53.261Z,95.27
2023-02-12T08:13:53.268Z,95.58
2023-02-12T08:14:53.240Z,95.58
2023-02-12T08:15:53.213Z,95.37
2023-02-12T08:16:53.438Z,95.78
2023-02-12T08:17:53.186Z,95.37
2023-02-12T08:18:53.205Z,95.48
2023-02-12T08:19:53.192Z,95.48
2023-02-12T08:20:53.189Z,95.68
2023-02-12T08:21:53.182Z,95.53
2023-02-12T08:22:53.133Z,95.48
2023-02-12T08:23:53.138Z,95.74
2023-02-12T08:24:53.124Z,95.53
2023-02-12T08:25:53.476Z,95.53
2023-02-12T08:26:53.089Z,95.12
2023-02-12T08:27:53.084Z,95.12
2023-02-12T08:28:53.076Z,95.23
2023-02-12T08:29:53.048Z,95.12
2023-02-12T08:30:53.074Z,95.23
2023-02-12T08:31:53.131Z,95.02
2023-02-12T08:32:53.030Z,95.02
2023-02-12T08:33:53.035Z,94.92
2023-02-12T08:34:53.010Z,95.12
2023-02-12T08:35:53.038Z,94.98
2023-02-12T08:36:52.999Z,94.87
2023-02-12T08:37:52.977Z,94.36
2023-02-12T08:38:52.961Z,94.36
2023-02-12T08:39:52.935Z,95.18
2023-02-12T08:40:52.980Z,94.46
2023-02-12T08:41:52.931Z,94.26
2023-02-12T08:42:52.904Z,94.36
2023-02-12T08:43:52.907Z,94.26
2023-02-12T08:44:52.894Z,94.26
2023-02-12T08:45:52.993Z,94.15
2023-02-12T08:46:52.923Z,94.05
2023-02-12T08:47:52.865Z,94.36
2023-02-12T08:48:52.855Z,94.05
2023-02-12T08:49:52.846Z,94.01
2023-02-12T08:50:52.824Z,94.62
2023-02-12T08:51:52.844Z,94.05
2023-02-12T08:52:52.812Z,94.26
2023-02-12T08:53:52.796Z,93.54
2023-02-12T08:54:52.796Z,93.74
2023-02-12T08:55:53.018Z,93.90
2023-02-12T08:56:52.743Z,94.31
2023-02-12T08:57:52.739Z,94.01
2023-02-12T08:58:52.730Z,93.90
2023-02-12T08:59:52.722Z,93.80
2023-02-12T09:00:52.750Z,93.80
2023-02-12T09:01:52.698Z,93.90
2023-02-12T09:02:52.690Z,93.80
2023-02-12T09:03:52.654Z,93.49
2023-02-12T09:04:52.678Z,93.08
2023-02-12T09:05:52.635Z,93.18
2023-02-12T09:06:52.649Z,93.18
2023-02-12T09:07:52.609Z,93.18
2023-02-12T09:08:52.649Z,92.97
2023-02-12T09:09:52.605Z,93.29
2023-02-12T09:10:52.621Z,93.08
2023-02-12T09:11:52.599Z,93.18
2023-02-12T09:12:52.558Z,92.73
2023-02-12T09:13:52.541Z,92.42
2023-02-12T09:14:52.566Z,92.73
2023-02-12T09:15:52.531Z,92.73
2023-02-12T09:16:52.589Z,93.04
2023-02-12T09:17:52.494Z,92.93
2023-02-12T09:18:52.488Z,92.83
2023-02-12T09:19:52.488Z,92.83
2023-02-12T09:20:52.465Z,92.52
2023-02-12T09:21:55.261Z,92.79
2023-02-12T09:22:52.502Z,92.42
2023-02-12T09:23:52.430Z,92.63
2023-02-12T09:24:52.458Z,92.48
2023-02-12T09:25:52.416Z,92.73
2023-02-12T09:26:52.436Z,92.27
2023-02-12T09:27:52.398Z,92.79
2023-02-12T09:28:52.404Z,92.69
2023-02-12T09:29:52.370Z,91.97
2023-02-12T09:30:52.465Z,91.66
2023-02-12T09:31:52.630Z,91.86
2023-02-12T09:32:52.344Z,91.76
2023-02-12T09:33:55.087Z,91.82
2023-02-12T09:34:52.353Z,91.97
2023-02-12T09:35:52.314Z,91.93
2023-02-12T09:36:52.302Z,91.72
2023-02-12T09:37:52.280Z,91.51
2023-02-12T09:38:52.261Z,91.61
2023-02-12T09:39:52.261Z,91.99
2023-02-12T09:40:52.285Z,91.16
2023-02-12T09:41:52.236Z,90.75
2023-02-12T09:42:52.219Z,91.37
2023-02-12T09:43:52.213Z,90.85
2023-02-12T09:44:52.212Z,90.95
2023-02-12T09:45:52.225Z,91.06
2023-02-12T09:46:52.225Z,89.89
2023-02-12T09:47:52.155Z,90.14
2023-02-12T09:48:52.157Z,90.14
2023-02-12T09:49:52.142Z,89.89
2023-02-12T09:50:52.131Z,90.24
2023-02-12T09:51:52.121Z,89.89
2023-02-12T09:52:52.132Z,90.09
2023-02-12T09:53:52.104Z,89.43
2023-02-12T09:54:52.101Z,89.58
2023-02-12T09:55:52.079Z,89.89
2023-02-12T09:56:52.102Z,89.99
2023-02-12T09:57:54.783Z,89.75
2023-02-12T09:58:52.044Z,90.05
2023-02-12T09:59:52.042Z,90.87
2023-02-12T10:00:52.030Z,89.64
2023-02-12T10:01:52.070Z,90.36
2023-02-12T10:02:52.010Z,90.01
2023-02-12T10:03:51.991Z,89.33
2023-02-12T10:05:01.191Z,89.75
2023-02-12T10:05:52.953Z,89.29
2023-02-12T10:06:51.962Z,89.29
2023-02-12T10:07:51.961Z,89.23
2023-02-12T10:08:51.938Z,89.29
2023-02-12T10:09:51.929Z,88.78
2023-02-12T10:10:51.912Z,89.19
2023-02-12T10:11:51.902Z,88.68
2023-02-12T10:12:51.935Z,88.98
2023-02-12T10:13:51.880Z,88.68
2023-02-12T10:14:51.954Z,88.98
2023-02-12T10:15:51.879Z,88.78
2023-02-12T10:16:51.850Z,88.78
2023-02-12T10:17:51.822Z,88.68
2023-02-12T10:18:51.875Z,88.78
2023-02-12T10:19:51.797Z,88.53
2023-02-12T10:20:51.800Z,88.64
2023-02-12T10:21:51.776Z,88.53
2023-02-12T10:22:56.909Z,88.43
2023-02-12T10:23:52.815Z,87.71
2023-02-12T10:24:51.747Z,87.51
2023-02-12T10:25:54.139Z,87.92
2023-02-12T10:26:51.742Z,87.57
2023-02-12T10:27:51.733Z,87.57
2023-02-12T10:28:51.726Z,87.26
2023-02-12T10:29:51.715Z,87.06
2023-02-12T10:30:51.783Z,87.57
2023-02-12T10:31:51.859Z,87.26
2023-02-12T10:32:51.678Z,86.85
2023-02-12T10:33:51.686Z,87.57
2023-02-12T10:34:51.644Z,87.26
2023-02-12T10:35:51.627Z,86.75
2023-02-12T10:36:51.604Z,86.65
2023-02-12T10:37:51.591Z,86.85
2023-02-12T10:38:51.579Z,86.75
2023-02-12T10:39:51.589Z,86.34
2023-02-12T10:40:51.593Z,86.44
2023-02-12T10:41:51.540Z,86.65
2023-02-12T10:42:51.539Z,86.71
2023-02-12T10:43:51.515Z,86.91
2023-02-12T10:44:51.538Z,86.40
2023-02-12T10:45:51.518Z,85.75
2023-02-12T10:46:51.494Z,85.58
2023-02-12T10:47:51.490Z,85.75
2023-02-12T10:48:51.466Z,85.64
2023-02-12T10:49:51.477Z,84.83
2023-02-12T10:50:51.466Z,85.58
2023-02-12T10:51:51.442Z,85.03
2023-02-12T10:52:51.432Z,84.63
2023-02-12T10:53:51.416Z,85.24
2023-02-12T10:54:51.421Z,85.07
2023-02-12T10:55:51.438Z,84.93
2023-02-12T10:56:51.401Z,84.46
2023-02-12T10:57:51.437Z,84.66
2023-02-12T10:58:51.383Z,84.83
2023-02-12T10:59:51.337Z,84.83
2023-02-12T11:00:51.365Z,85.24
2023-02-12T11:01:51.427Z,85.34
2023-02-12T11:02:51.323Z,84.83
2023-02-12T11:03:51.292Z,84.07
2023-02-12T11:04:51.317Z,84.28
2023-02-12T11:05:51.294Z,84.79
2023-02-12T11:06:51.272Z,83.76
2023-02-12T11:07:51.245Z,83.97
2023-02-12T11:08:51.238Z,83.76
2023-02-12T11:09:51.239Z,83.56
2023-02-12T11:10:51.243Z,83.15
2023-02-12T11:11:51.205Z,84.22
2023-02-12T11:12:51.189Z,83.56
2023-02-12T11:13:51.174Z,83.46
2023-02-12T11:14:51.168Z,83.97
2023-02-12T11:15:51.184Z,83.76
2023-02-12T11:16:51.198Z,83.97
2023-02-12T11:17:51.132Z,83.56
2023-02-12T11:18:51.135Z,83.42
2023-02-12T11:19:51.128Z,83.11
2023-02-12T11:20:51.131Z,83.11
2023-02-12T11:21:51.115Z,83.62
2023-02-12T11:22:51.078Z,82.50
2023-02-12T11:23:51.062Z,82.67
2023-02-12T11:24:51.054Z,82.26
2023-02-12T11:25:51.054Z,82.46
2023-02-12T11:26:51.072Z,82.26
2023-02-12T11:27:51.017Z,82.15
2023-02-12T11:28:51.057Z,82.05
2023-02-12T11:29:51.011Z,82.36
2023-02-12T11:30:51.038Z,82.26
2023-02-12T11:31:51.099Z,81.85
2023-02-12T11:32:50.998Z,81.44
2023-02-12T11:33:50.964Z,82.15
2023-02-12T11:34:50.936Z,81.85
2023-02-12T11:35:50.935Z,82.15
2023-02-12T11:36:50.930Z,81.54
2023-02-12T11:37:50.941Z,81.85
2023-02-12T11:38:50.925Z,81.74
2023-02-12T11:39:50.896Z,81.65
2023-02-12T11:40:50.881Z,81.71
2023-02-12T11:41:50.867Z,81.54
2023-02-12T11:42:50.860Z,81.74
2023-02-12T11:43:51.996Z,81.60
2023-02-12T11:44:50.835Z,82.01
2023-02-12T11:45:50.822Z,82.73
2023-02-12T11:46:50.876Z,81.81
2023-02-12T11:47:50.811Z,81.71
2023-02-12T11:48:50.873Z,81.71
2023-02-12T11:49:50.774Z,81.87
2023-02-12T11:50:50.759Z,80.69
2023-02-12T11:51:51.405Z,81.10
2023-02-12T11:52:50.736Z,81.05
2023-02-12T11:53:50.748Z,80.48
2023-02-12T11:54:50.742Z,79.73
2023-02-12T11:55:50.716Z,79.32
2023-02-12T11:56:50.767Z,79.83
2023-02-12T11:57:50.680Z,79.83
2023-02-12T11:58:50.698Z,80.04
2023-02-12T11:59:50.709Z,79.73
2023-02-12T12:00:50.647Z,78.91
2023-02-12T12:01:50.687Z,79.43
2023-02-12T12:02:50.713Z,79.22
2023-02-12T12:03:50.615Z,79.52
2023-02-12T12:04:50.652Z,79.22
2023-02-12T12:05:50.607Z,79.12
2023-02-12T12:06:50.590Z,79.02
2023-02-12T12:07:50.590Z,79.22
2023-02-12T12:08:50.565Z,79.22
2023-02-12T12:09:50.587Z,79.63
2023-02-12T12:10:50.532Z,79.32
2023-02-12T12:11:50.535Z,79.32
2023-02-12T12:12:50.539Z,80.04
2023-02-12T12:13:50.499Z,79.52
2023-02-12T12:14:50.513Z,79.32
2023-02-12T12:15:50.476Z,79.28
2023-02-12T12:16:50.473Z,78.30
2023-02-12T12:17:50.459Z,78.27
2023-02-12T12:18:50.473Z,78.47
2023-02-12T12:19:50.435Z,77.79
2023-02-12T12:20:50.466Z,78.61
2023-02-12T12:21:50.409Z,78.71
2023-02-12T12:22:50.394Z,79.22
2023-02-12T12:23:50.397Z,78.50
2023-02-12T12:24:50.370Z,78.71
2023-02-12T12:25:50.380Z,78.91
2023-02-12T12:26:50.350Z,79.43
2023-02-12T12:27:50.346Z,78.61
2023-02-12T12:28:50.329Z,79.22
2023-02-12T12:29:50.324Z,79.22
2023-02-12T12:30:50.331Z,79.49
2023-02-12T12:31:50.386Z,78.67
2023-02-12T12:32:50.320Z,78.67
2023-02-12T12:33:50.304Z,78.23
2023-02-12T12:34:50.271Z,78.27
2023-02-12T12:35:50.251Z,77.51
2023-02-12T12:36:51.775Z,77.51
2023-02-12T12:37:50.290Z,77.72
2023-02-12T12:38:50.211Z,76.90
2023-02-12T12:39:50.257Z,77.00
2023-02-12T12:40:50.202Z,77.72
2023-02-12T12:41:50.197Z,77.72
2023-02-12T12:42:50.165Z,78.12
2023-02-12T12:43:50.180Z,77.51
2023-02-12T12:44:50.164Z,77.11
2023-02-12T12:45:50.181Z,77.21
2023-02-12T12:46:50.122Z,77.78
2023-02-12T12:47:50.121Z,77.07
2023-02-12T12:48:50.122Z,77.31
2023-02-12T12:49:50.147Z,77.07
2023-02-12T12:50:50.077Z,76.76
2023-02-12T12:51:50.085Z,77.27
2023-02-12T12:52:50.076Z,76.97
2023-02-12T12:53:50.061Z,76.32
2023-02-12T12:54:50.028Z,76.35
2023-02-12T12:55:50.044Z,76.15
2023-02-12T12:56:50.011Z,76.76
2023-02-12T12:57:50.003Z,77.37
2023-02-12T12:58:50.001Z,76.56
2023-02-12T12:59:49.978Z,76.56
2023-02-12T13:00:50.030Z,77.37
2023-02-12T13:01:49.991Z,77.34
2023-02-12T13:02:49.942Z,77.27
2023-02-12T13:03:49.934Z,77.24
2023-02-12T13:04:49.917Z,76.12
2023-02-12T13:05:49.914Z,77.03
2023-02-12T13:06:49.918Z,75.92
2023-02-12T13:07:49.939Z,76.32
2023-02-12T13:08:49.916Z,76.32
2023-02-12T13:09:49.865Z,76.22
2023-02-12T13:10:49.854Z,76.12
2023-02-12T13:11:49.857Z,75.71
2023-02-12T13:12:49.842Z,76.32
2023-02-12T13:13:49.837Z,75.85
2023-02-12T13:14:49.810Z,75.81
2023-02-12T13:15:49.799Z,76.73
2023-02-12T13:16:49.849Z,76.53
2023-02-12T13:17:49.778Z,76.01
2023-02-12T13:18:49.776Z,76.22
2023-02-12T13:19:49.789Z,76.35
2023-02-12T13:20:49.738Z,77.34
2023-02-12T13:21:49.744Z,77.14
2023-02-12T13:22:49.728Z,76.66
2023-02-12T13:23:49.721Z,77.37
2023-02-12T13:24:49.818Z,77.17
2023-02-12T13:25:49.726Z,77.03
2023-02-12T13:26:49.684Z,77.07
2023-02-12T13:27:49.679Z,77.07
2023-02-12T13:28:49.674Z,76.76
2023-02-12T13:29:49.646Z,77.27
2023-02-12T13:30:49.762Z,77.17
2023-02-12T13:31:49.790Z,77.37
2023-02-12T13:32:49.603Z,76.97
2023-02-12T13:33:49.596Z,76.56
2023-02-12T13:34:49.595Z,76.35
2023-02-12T13:35:49.590Z,76.56
2023-02-12T13:36:49.582Z,77.37
2023-02-12T13:37:49.561Z,77.07
2023-02-12T13:38:49.547Z,76.87
2023-02-12T13:39:49.528Z,77.07
2023-02-12T13:40:49.536Z,77.17
2023-02-12T13:41:49.540Z,76.66
2023-02-12T13:42:49.490Z,76.35
2023-02-12T13:43:49.504Z,77.17
2023-02-12T13:44:49.479Z,77.17
2023-02-12T13:45:49.594Z,77.07
2023-02-12T13:46:49.461Z,76.87
2023-02-12T13:47:49.452Z,77.27
2023-02-12T13:48:49.424Z,76.46
2023-02-12T13:49:49.431Z,76.46
2023-02-12T13:50:49.414Z,77.17
2023-02-12T13:51:49.401Z,77.48
2023-02-12T13:52:49.374Z,77.27
2023-02-12T13:53:49.393Z,77.41
2023-02-12T13:54:49.372Z,76.87
2023-02-12T13:55:49.346Z,77.37
2023-02-12T13:56:49.374Z,77.27
2023-02-12T13:57:49.333Z,77.37
2023-02-12T13:58:49.324Z,77.07
2023-02-12T13:59:49.353Z,77.17
2023-02-12T14:00:49.304Z,77.37
2023-02-12T14:01:49.478Z,77.68
2023-02-12T14:02:49.462Z,77.27
2023-02-12T14:03:49.270Z,77.41
2023-02-12T14:04:49.238Z,77.68
2023-02-12T14:05:49.268Z,76.76
2023-02-12T14:06:49.219Z,77.31
2023-02-12T14:07:49.229Z,77.00
2023-02-12T14:08:49.194Z,77.82
2023-02-12T14:09:49.196Z,77.82
2023-02-12T14:10:49.181Z,77.72
2023-02-12T14:11:49.179Z,77.55
2023-02-12T14:12:49.186Z,77.86
2023-02-12T14:13:49.147Z,78.47
2023-02-12T14:14:49.158Z,78.57
2023-02-12T14:15:49.218Z,78.57
2023-02-12T14:16:49.099Z,79.28
2023-02-12T14:17:50.610Z,78.47
2023-02-12T14:18:49.093Z,78.77
2023-02-12T14:19:49.083Z,78.37
2023-02-12T14:20:49.061Z,78.88
2023-02-12T14:21:49.075Z,78.37
2023-02-12T14:22:49.044Z,78.57
2023-02-12T14:23:49.023Z,78.57
2023-02-12T14:24:49.030Z,78.47
2023-02-12T14:25:49.014Z,78.64
2023-02-12T14:26:49.024Z,79.28
2023-02-12T14:27:48.994Z,78.98
2023-02-12T14:28:48.997Z,79.18
2023-02-12T14:29:48.970Z,77.92
2023-02-12T14:30:49.094Z,78.37
2023-02-12T14:31:49.040Z,78.27
2023-02-12T14:32:48.935Z,78.37
2023-02-12T14:33:48.934Z,78.43
2023-02-12T14:34:48.898Z,78.64
2023-02-12T14:35:48.901Z,78.88
2023-02-12T14:36:48.888Z,78.84
2023-02-12T14:37:48.899Z,79.28
2023-02-12T14:38:48.849Z,78.77
2023-02-12T14:39:48.886Z,78.88
2023-02-12T14:40:48.845Z,79.39
2023-02-12T14:41:48.833Z,79.18
2023-02-12T14:42:48.839Z,78.37
2023-02-12T14:43:48.806Z,79.08
2023-02-12T14:44:48.821Z,78.98
2023-02-12T14:45:48.787Z,79.39
2023-02-12T14:46:48.788Z,79.18
2023-02-12T14:47:48.767Z,79.69
2023-02-12T14:48:48.751Z,79.18
2023-02-12T14:49:48.725Z,78.67
2023-02-12T14:50:48.730Z,79.28
2023-02-12T14:51:48.704Z,77.45
2023-02-12T14:52:48.722Z,77.86
2023-02-12T14:53:48.695Z,78.20
2023-02-12T14:54:48.677Z,78.57
2023-02-12T14:55:48.658Z,78.27
2023-02-12T14:56:48.658Z,78.27
2023-02-12T14:57:48.649Z,78.47
2023-02-12T14:58:48.646Z,78.47
2023-02-12T14:59:48.614Z,78.57
2023-02-12T15:00:48.657Z,78.50
2023-02-12T15:01:48.632Z,78.50
2023-02-12T15:02:48.574Z,79.12
2023-02-12T15:03:48.573Z,79.32
2023-02-12T15:04:48.605Z,79.36
2023-02-12T15:05:48.560Z,79.25
2023-02-12T15:06:48.529Z,79.63
2023-02-12T15:07:48.544Z,79.22
2023-02-12T15:08:48.519Z,79.87
2023-02-12T15:09:48.513Z,79.97
2023-02-12T15:10:48.500Z,79.46
2023-02-12T15:11:48.476Z,79.77
2023-02-12T15:12:48.485Z,79.87
2023-02-12T15:13:48.467Z,79.52
2023-02-12T15:14:48.453Z,80.07
2023-02-12T15:15:48.457Z,79.97
2023-02-12T15:16:48.504Z,80.18
2023-02-12T15:17:48.426Z,79.73
2023-02-12T15:18:48.409Z,79.73
2023-02-12T15:19:48.385Z,79.83
2023-02-12T15:20:48.371Z,80.14
2023-02-12T15:21:48.365Z,79.73
2023-02-12T15:22:48.366Z,79.87
2023-02-12T15:23:48.356Z,79.77
2023-02-12T15:24:48.339Z,79.22
2023-02-12T15:25:48.318Z,79.02
2023-02-12T15:26:48.319Z,79.02
2023-02-12T15:27:48.330Z,79.32
2023-02-12T15:28:48.292Z,79.12
2023-02-12T15:29:48.274Z,79.02
2023-02-12T15:30:48.348Z,79.16
2023-02-12T15:31:48.521Z,78.95
2023-02-12T15:32:48.277Z,79.46
2023-02-12T15:33:48.246Z,79.22
2023-02-12T15:34:48.218Z,78.91
2023-02-12T15:35:48.217Z,78.91
2023-02-12T15:36:48.203Z,79.77
2023-02-12T15:37:48.205Z,79.66
2023-02-12T15:38:48.182Z,79.46
2023-02-12T15:39:48.159Z,79.16
2023-02-12T15:40:48.159Z,79.66
2023-02-12T15:41:48.139Z,79.46
2023-02-12T15:42:48.153Z,79.97
2023-02-12T15:43:48.129Z,79.66
2023-02-12T15:44:48.098Z,80.18
2023-02-12T15:45:48.092Z,80.18
2023-02-12T15:46:48.111Z,80.48
2023-02-12T15:47:48.078Z,80.99
2023-02-12T15:48:48.087Z,80.79
2023-02-12T15:49:48.071Z,80.58
2023-02-12T15:50:48.054Z,80.42
2023-02-12T15:51:48.032Z,80.48
2023-02-12T15:52:48.031Z,80.83
2023-02-12T15:53:48.002Z,81.10
2023-02-12T15:54:47.993Z,80.42
2023-02-12T15:55:47.992Z,81.24
2023-02-12T15:56:47.966Z,81.40
2023-02-12T15:57:47.962Z,81.40
2023-02-12T15:58:47.947Z,81.34
2023-02-12T15:59:47.942Z,80.73
2023-02-12T16:00:47.940Z,80.62
2023-02-12T16:01:48.030Z,81.44
2023-02-12T16:02:47.920Z,81.24
2023-02-12T16:03:47.919Z,81.44
2023-02-12T16:04:47.900Z,81.74
2023-02-12T16:05:47.862Z,81.54
2023-02-12T16:06:47.866Z,81.44
2023-02-12T16:07:47.841Z,81.24
2023-02-12T16:08:47.870Z,80.73
2023-02-12T16:09:47.844Z,80.62
2023-02-12T16:10:47.806Z,81.34
2023-02-12T16:11:47.797Z,81.13
2023-02-12T16:12:47.800Z,81.24
2023-02-12T16:13:47.808Z,81.65
2023-02-12T16:14:47.795Z,81.54
2023-02-12T16:15:47.833Z,81.54
2023-02-12T16:16:47.752Z,81.48
2023-02-12T16:17:47.740Z,81.74
2023-02-12T16:18:47.716Z,81.58
2023-02-12T16:19:47.700Z,81.88
2023-02-12T16:20:47.759Z,81.99
2023-02-12T16:21:47.683Z,81.88
2023-02-12T16:22:47.677Z,81.79
2023-02-12T16:23:47.669Z,81.99
2023-02-12T16:24:47.661Z,81.99
2023-02-12T16:25:47.653Z,82.20
2023-02-12T16:26:47.688Z,81.99
2023-02-12T16:27:47.621Z,81.99
2023-02-12T16:28:47.615Z,82.09
2023-02-12T16:29:47.591Z,82.03
2023-02-12T16:30:47.579Z,81.99
2023-02-12T16:31:47.733Z,82.70
2023-02-12T16:32:48.025Z,82.60
2023-02-12T16:33:47.554Z,82.70
2023-02-12T16:34:47.534Z,82.03
2023-02-12T16:35:47.530Z,82.20
2023-02-12T16:36:47.538Z,82.13
2023-02-12T16:37:47.527Z,82.13
2023-02-12T16:38:47.494Z,81.99
2023-02-12T16:39:47.483Z,81.88
2023-02-12T16:40:47.482Z,81.99
2023-02-12T16:41:47.463Z,82.13
2023-02-12T16:42:47.474Z,82.34
2023-02-12T16:43:47.446Z,82.60
2023-02-12T16:44:47.431Z,82.64
2023-02-12T16:45:47.545Z,82.43
2023-02-12T16:46:47.409Z,81.88
2023-02-12T16:47:47.393Z,82.03
2023-02-12T16:48:49.175Z,82.03
2023-02-12T16:49:47.360Z,82.13
2023-02-12T16:50:47.356Z,82.03
2023-02-12T16:51:47.349Z,82.13
2023-02-12T16:52:47.378Z,82.23
2023-02-12T16:53:47.327Z,82.03
2023-02-12T16:54:47.324Z,82.43
2023-02-12T16:55:47.319Z,82.43
2023-02-12T16:56:47.298Z,82.60
2023-02-12T16:57:47.267Z,82.70
2023-02-12T16:58:47.275Z,82.34
2023-02-12T16:59:47.249Z,82.34
2023-02-12T17:00:47.338Z,82.64
2023-02-12T17:01:47.225Z,82.70
2023-02-12T17:02:47.253Z,82.54
2023-02-12T17:03:47.323Z,82.54
2023-02-12T17:04:47.207Z,82.43
2023-02-12T17:05:47.190Z,82.34
2023-02-12T17:06:47.194Z,82.64
2023-02-12T17:07:47.158Z,82.43
2023-02-12T17:08:47.195Z,82.64
2023-02-12T17:09:47.131Z,82.23
2023-02-12T17:10:47.138Z,82.23
2023-02-12T17:11:47.109Z,82.23
2023-02-12T17:12:47.132Z,82.13
2023-02-12T17:13:47.102Z,82.23
2023-02-12T17:14:47.081Z,82.34
2023-02-12T17:15:47.077Z,82.17
2023-02-12T17:16:47.156Z,82.23
2023-02-12T17:17:47.085Z,82.54
2023-02-12T17:18:47.096Z,82.54
2023-02-12T17:19:47.033Z,82.34
2023-02-12T17:20:47.010Z,83.66
2023-02-12T17:21:47.003Z,83.46
2023-02-12T17:22:47.027Z,83.66
2023-02-12T17:23:46.986Z,82.75
2023-02-12T17:24:47.006Z,82.75
2023-02-12T17:25:46.962Z,82.75
2023-02-12T17:26:46.967Z,82.75
2023-02-12T17:27:46.937Z,82.03
2023-02-12T17:28:46.923Z,82.43
2023-02-12T17:29:46.912Z,82.23
2023-02-12T17:30:46.903Z,82.23
2023-02-12T17:31:47.000Z,82.23
2023-02-12T17:32:46.924Z,82.43
2023-02-12T17:33:46.861Z,82.43
2023-02-12T17:34:49.171Z,82.48
2023-02-12T17:35:46.856Z,82.13
2023-02-12T17:36:46.843Z,82.84
2023-02-12T17:37:46.833Z,82.75
2023-02-12T17:38:46.831Z,82.78
2023-02-12T17:39:46.808Z,82.03
2023-02-12T17:40:46.810Z,82.13
2023-02-12T17:41:46.768Z,82.75
2023-02-12T17:42:46.763Z,83.46
2023-02-12T17:43:46.745Z,83.46
2023-02-12T17:44:46.765Z,83.66
2023-02-12T17:45:46.825Z,83.39
2023-02-12T17:46:46.726Z,83.36
2023-02-12T17:47:46.701Z,83.70
2023-02-12T17:48:46.706Z,82.78
2023-02-12T17:49:46.701Z,83.50
2023-02-12T17:50:46.691Z,83.19
2023-02-12T17:51:46.671Z,83.60
2023-02-12T17:52:46.661Z,83.66
2023-02-12T17:53:46.648Z,83.66
2023-02-12T17:54:46.626Z,84.01
2023-02-12T17:55:46.630Z,83.19
2023-02-12T17:56:46.674Z,83.19
2023-02-12T17:57:46.587Z,83.19
2023-02-12T17:58:46.581Z,83.60
2023-02-12T17:59:46.563Z,83.39
2023-02-12T18:00:46.570Z,83.50
2023-02-12T18:01:46.553Z,83.29
2023-02-12T18:02:46.560Z,83.19
2023-02-12T18:03:46.531Z,83.29
2023-02-12T18:04:46.555Z,83.19
2023-02-12T18:05:46.509Z,83.70
2023-02-12T18:06:46.504Z,83.60
2023-02-12T18:07:46.489Z,83.09
2023-02-12T18:08:46.489Z,83.39
2023-02-12T18:09:46.450Z,83.19
2023-02-12T18:10:46.444Z,83.19
2023-02-12T18:11:46.449Z,83.81
2023-02-12T18:12:46.458Z,83.39
2023-02-12T18:13:46.422Z,83.50
2023-02-12T18:14:46.397Z,83.19
2023-02-12T18:15:46.389Z,83.29
2023-02-12T18:16:46.471Z,83.29
2023-02-12T18:17:46.376Z,83.50
2023-02-12T18:18:46.350Z,83.91
2023-02-12T18:19:46.363Z,83.50
2023-02-12T18:20:46.329Z,83.76
2023-02-12T18:21:46.322Z,83.39
2023-02-12T18:22:46.319Z,82.98
2023-02-12T18:23:46.299Z,83.09
2023-02-12T18:24:46.281Z,83.39
2023-02-12T18:25:46.316Z,83.70
2023-02-12T18:26:46.260Z,83.91
2023-02-12T18:27:46.261Z,83.70
2023-02-12T18:28:46.288Z,83.81
2023-02-12T18:29:46.245Z,83.50
2023-02-12T18:30:46.309Z,83.50
2023-02-12T18:31:46.372Z,83.39
2023-02-12T18:32:46.208Z,83.60
2023-02-12T18:33:46.191Z,83.91
2023-02-12T18:34:46.182Z,83.70
2023-02-12T18:35:46.169Z,84.01
2023-02-12T18:36:46.160Z,83.91
2023-02-12T18:37:46.166Z,83.60
2023-02-12T18:38:46.141Z,83.50
2023-02-12T18:39:46.112Z,83.39
2023-02-12T18:40:46.110Z,83.70
2023-02-12T18:41:46.099Z,83.50
2023-02-12T18:42:46.097Z,84.01
2023-02-12T18:43:46.120Z,83.70
2023-02-12T18:44:46.100Z,83.60
2023-02-12T18:45:46.048Z,83.70
2023-02-12T18:46:46.033Z,83.15
2023-02-12T18:47:46.032Z,83.09
2023-02-12T18:48:46.024Z,83.81
2023-02-12T18:49:46.021Z,82.98
2023-02-12T18:50:45.985Z,83.60
2023-02-12T18:51:46.004Z,83.60
2023-02-12T18:52:45.978Z,83.39
2023-02-12T18:53:45.949Z,83.50
2023-02-12T18:54:45.966Z,83.70
2023-02-12T18:55:45.926Z,83.70
2023-02-12T18:56:45.931Z,83.91
2023-02-12T18:57:45.915Z,83.50
2023-02-12T18:58:45.897Z,83.29
2023-02-12T18:59:45.923Z,83.39
2023-02-12T19:00:45.898Z,83.60
2023-02-12T19:01:45.931Z,83.60
2023-02-12T19:02:45.865Z,83.70
2023-02-12T19:03:45.849Z,83.60
2023-02-12T19:04:45.883Z,83.60
2023-02-12T19:05:45.823Z,83.50
2023-02-12T19:06:45.820Z,83.60
2023-02-12T19:07:45.801Z,83.50
2023-02-12T19:08:45.788Z,83.39
2023-02-12T19:09:45.791Z,83.84
2023-02-12T19:10:45.768Z,84.01
2023-02-12T19:11:45.763Z,84.11
2023-02-12T19:12:45.740Z,83.95
2023-02-12T19:13:45.718Z,83.70
2023-02-12T19:14:45.743Z,84.01
2023-02-12T19:15:45.759Z,84.05
2023-02-12T19:16:45.727Z,84.05
2023-02-12T19:17:45.686Z,83.91
2023-02-12T19:18:45.683Z,84.22
2023-02-12T19:19:45.679Z,84.05
2023-02-12T19:20:45.665Z,83.74
2023-02-12T19:21:45.626Z,84.93
2023-02-12T19:22:46.506Z,84.97
2023-02-12T19:23:45.633Z,84.46
2023-02-12T19:24:47.146Z,84.97
2023-02-12T19:25:45.600Z,84.15
2023-02-12T19:26:45.589Z,84.66
2023-02-12T19:27:45.574Z,84.25
2023-02-12T19:28:45.570Z,85.28
2023-02-12T19:29:45.570Z,85.28
2023-02-12T19:30:45.589Z,84.97
2023-02-12T19:31:45.622Z,85.38
2023-02-12T19:32:45.534Z,85.17
2023-02-12T19:33:45.491Z,85.07
2023-02-12T19:34:45.497Z,84.97
2023-02-12T19:35:45.522Z,84.87
2023-02-12T19:36:45.464Z,85.01
2023-02-12T19:37:45.457Z,85.07
2023-02-12T19:38:45.456Z,84.56
2023-02-12T19:39:45.433Z,84.97
2023-02-12T19:40:45.416Z,85.28
2023-02-12T19:41:45.442Z,85.07
2023-02-12T19:42:45.398Z,84.66
2023-02-12T19:43:45.397Z,85.22
2023-02-12T19:44:45.373Z,84.97
2023-02-12T19:45:45.372Z,85.28
2023-02-12T19:46:45.360Z,85.38
2023-02-12T19:47:45.364Z,85.69
2023-02-12T19:48:45.367Z,85.89
2023-02-12T19:49:45.334Z,85.99
2023-02-12T19:50:45.307Z,85.83
2023-02-12T19:51:45.294Z,86.04
2023-02-12T19:52:45.302Z,85.89
2023-02-12T19:53:45.295Z,85.83
2023-02-12T19:54:45.282Z,85.63
2023-02-12T19:55:45.259Z,85.58
2023-02-12T19:56:45.288Z,85.52
2023-02-12T19:57:45.237Z,85.63
2023-02-12T19:58:45.228Z,85.48
2023-02-12T19:59:45.216Z,85.63
2023-02-12T20:00:45.194Z,85.58
2023-02-12T20:01:45.290Z,85.83
2023-02-12T20:02:45.253Z,85.93
2023-02-12T20:03:45.160Z,85.52
2023-02-12T20:04:45.228Z,85.93
2023-02-12T20:05:45.139Z,85.63
2023-02-12T20:06:45.141Z,85.83
2023-02-12T20:07:45.116Z,86.04
2023-02-12T20:08:45.114Z,85.83
2023-02-12T20:09:45.104Z,85.83
2023-02-12T20:10:45.238Z,85.83
2023-02-12T20:11:45.067Z,86.24
2023-02-12T20:12:45.069Z,86.65
2023-02-12T20:13:45.060Z,86.55
2023-02-12T20:14:45.029Z,86.85
2023-02-12T20:15:45.061Z,86.75
2023-02-12T20:16:45.023Z,86.75
2023-02-12T20:17:45.015Z,86.99
2023-02-12T20:18:45.001Z,86.34
2023-02-12T20:19:44.986Z,86.55
2023-02-12T20:20:45.008Z,86.85
2023-02-12T20:21:44.986Z,87.16
2023-02-12T20:22:44.941Z,86.65
2023-02-12T20:23:44.933Z,86.44
2023-02-12T20:24:44.922Z,86.65